createdAt,value
2024-01-05T00:00:51.904Z,6.60
2024-01-05T00:01:51.852Z,7.00
2024-01-05T00:02:51.849Z,6.70
2024-01-05T00:03:51.870Z,7.20
2024-01-05T00:04:51.774Z,6.60
2024-01-05T00:05:51.846Z,6.90
2024-01-05T00:06:51.746Z,6.10
2024-01-05T00:07:51.694Z,6.60
2024-01-05T00:08:51.713Z,6.50
2024-01-05T00:09:51.644Z,5.90
2024-01-05T00:10:51.622Z,6.40
2024-01-05T00:11:51.642Z,6.90
2024-01-05T00:12:51.548Z,6.40
2024-01-05T00:13:51.530Z,6.60
2024-01-05T00:14:51.592Z,6.50
2024-01-05T00:15:51.488Z,6.00
2024-01-05T00:16:51.462Z,6.60
2024-01-05T00:17:51.570Z,5.90
2024-01-05T00:18:51.533Z,6.20
2024-01-05T00:19:51.407Z,5.70
2024-01-05T00:20:51.394Z,5.50
2024-01-05T00:21:51.328Z,6.20
2024-01-05T00:22:51.291Z,5.20
2024-01-05T00:23:51.284Z,5.40
2024-01-05T00:24:51.235Z,5.80
2024-01-05T00:25:51.216Z,5.30
2024-01-05T00:26:51.213Z,5.90
2024-01-05T00:27:51.261Z,5.60
2024-01-05T00:28:51.136Z,5.90
2024-01-05T00:29:51.149Z,5.60
2024-01-05T00:30:51.149Z,5.30
2024-01-05T00:31:51.054Z,4.80
2024-01-05T00:32:51.263Z,5.30
2024-01-05T00:33:51.250Z,5.60
2024-01-05T00:34:51.067Z,5.90
2024-01-05T00:35:50.998Z,4.70
2024-01-05T00:36:50.929Z,5.20
2024-01-05T00:37:50.895Z,4.50
2024-01-05T00:38:50.921Z,5.60
2024-01-05T00:39:50.844Z,5.20
2024-01-05T00:40:50.812Z,4.80
2024-01-05T00:41:50.784Z,5.50
2024-01-05T00:42:50.765Z,5.10
2024-01-05T00:43:50.752Z,6.00
2024-01-05T00:44:50.757Z,4.40
2024-01-05T00:45:50.688Z,4.90
2024-01-05T00:46:50.650Z,4.90
2024-01-05T00:47:50.745Z,4.90
2024-01-05T00:48:50.776Z,5.40
2024-01-05T00:49:50.677Z,4.80
2024-01-05T00:50:50.605Z,4.60
2024-01-05T00:51:50.530Z,5.20
2024-01-05T00:52:50.494Z,4.40
2024-01-05T00:53:50.513Z,4.80
2024-01-05T00:54:50.442Z,4.90
2024-01-05T00:55:50.413Z,5.60
2024-01-05T00:56:50.449Z,5.10
2024-01-05T00:57:50.365Z,4.70
2024-01-05T00:58:50.334Z,4.60
2024-01-05T00:59:50.362Z,5.00
2024-01-05T01:00:50.434Z,4.30
2024-01-05T01:01:50.259Z,4.70
2024-01-05T01:02:50.300Z,5.00
2024-01-05T01:03:50.322Z,4.70
2024-01-05T01:04:50.243Z,5.10
2024-01-05T01:05:50.167Z,4.50
2024-01-05T01:06:50.120Z,4.50
2024-01-05T01:07:50.092Z,4.20
2024-01-05T01:08:50.087Z,4.30
2024-01-05T01:09:50.059Z,5.00
2024-01-05T01:10:50.011Z,4.40
2024-01-05T01:11:50.056Z,4.80
2024-01-05T01:12:49.959Z,4.40
2024-01-05T01:13:49.933Z,4.30
2024-01-05T01:14:49.918Z,4.00
2024-01-05T01:15:49.909Z,3.60
2024-01-05T01:16:49.848Z,4.30
2024-01-05T01:17:50.107Z,4.80
2024-01-05T01:18:49.948Z,4.40
2024-01-05T01:19:49.823Z,4.50
2024-01-05T01:20:49.896Z,4.40
2024-01-05T01:21:49.719Z,4.20
2024-01-05T01:22:49.690Z,4.30
2024-01-05T01:23:49.687Z,4.40
2024-01-05T01:24:49.637Z,3.90
2024-01-05T01:25:49.611Z,4.00
2024-01-05T01:26:49.635Z,4.50
2024-01-05T01:27:49.604Z,3.90
2024-01-05T01:28:49.550Z,4.40
2024-01-05T01:29:49.539Z,3.90
2024-01-05T01:30:49.554Z,3.50
2024-01-05T01:31:49.478Z,3.90
2024-01-05T01:32:49.485Z,3.80
2024-01-05T01:33:49.550Z,4.70
2024-01-05T01:34:49.451Z,4.10
2024-01-05T01:35:49.372Z,4.10
2024-01-05T01:36:49.318Z,3.50
2024-01-05T01:37:49.294Z,3.40
2024-01-05T01:38:49.312Z,3.80
2024-01-05T01:39:49.253Z,4.20
2024-01-05T01:40:49.262Z,3.50
2024-01-05T01:41:49.218Z,4.30
2024-01-05T01:42:49.210Z,4.30
2024-01-05T01:43:52.918Z,3.90
2024-01-05T01:44:49.120Z,4.10
2024-01-05T01:45:49.079Z,4.00
2024-01-05T01:46:49.057Z,4.00
2024-01-05T01:47:49.191Z,3.50
2024-01-05T01:48:49.213Z,4.70
2024-01-05T01:49:49.171Z,3.50
2024-01-05T01:50:48.969Z,3.70
2024-01-05T01:51:48.920Z,4.10
2024-01-05T01:52:48.920Z,3.50
2024-01-05T01:53:48.877Z,4.70
2024-01-05T01:54:48.844Z,3.80
2024-01-05T01:55:48.814Z,3.50
2024-01-05T01:56:48.788Z,3.90
2024-01-05T01:57:48.767Z,4.30
2024-01-05T01:58:48.773Z,3.40
2024-01-05T01:59:48.736Z,3.50
2024-01-05T02:00:48.767Z,3.80
2024-01-05T02:01:48.656Z,3.30
2024-01-05T02:02:48.629Z,4.20
2024-01-05T02:03:48.701Z,4.50
2024-01-05T02:04:48.744Z,3.60
2024-01-05T02:05:48.546Z,3.60
2024-01-05T02:06:48.544Z,3.40
2024-01-05T02:07:48.499Z,3.80
2024-01-05T02:08:48.473Z,4.40
2024-01-05T02:09:48.469Z,3.90
2024-01-05T02:10:48.434Z,3.70
2024-01-05T02:11:48.389Z,3.90
2024-01-05T02:12:48.360Z,3.90
2024-01-05T02:13:48.341Z,3.90
2024-01-05T02:14:48.325Z,3.60
2024-01-05T02:15:48.302Z,3.80
2024-01-05T02:16:48.257Z,4.80
2024-01-05T02:17:48.398Z,4.00
2024-01-05T02:18:48.328Z,3.70
2024-01-05T02:19:48.255Z,4.20
2024-01-05T02:20:48.298Z,3.80
2024-01-05T02:21:48.125Z,4.00
2024-01-05T02:22:48.103Z,4.00
2024-01-05T02:23:48.066Z,3.90
2024-01-05T02:24:48.039Z,3.90
2024-01-05T02:25:48.013Z,4.50
2024-01-05T02:26:48.429Z,3.90
2024-01-05T02:27:47.961Z,3.40
2024-01-05T02:28:47.928Z,3.60
2024-01-05T02:29:47.905Z,3.50
2024-01-05T02:30:48.066Z,3.30
2024-01-05T02:31:47.850Z,3.30
2024-01-05T02:32:47.845Z,3.30
2024-01-05T02:33:47.957Z,3.50
2024-01-05T02:34:47.796Z,4.00
2024-01-05T02:35:47.803Z,3.40
2024-01-05T02:36:47.769Z,3.50
2024-01-05T02:37:47.704Z,3.50
2024-01-05T02:38:47.662Z,4.00
2024-01-05T02:39:47.654Z,3.30
2024-01-05T02:40:47.614Z,3.60
2024-01-05T02:41:47.593Z,3.10
2024-01-05T02:42:47.565Z,3.70
2024-01-05T02:43:47.531Z,3.60
2024-01-05T02:44:47.497Z,3.80
2024-01-05T02:45:47.479Z,3.70
2024-01-05T02:46:47.447Z,3.50
2024-01-05T02:47:47.547Z,3.40
2024-01-05T02:48:47.531Z,3.30
2024-01-05T02:49:47.466Z,3.70
2024-01-05T02:50:47.350Z,3.50
2024-01-05T02:51:47.379Z,3.60
2024-01-05T02:52:47.292Z,3.40
2024-01-05T02:53:47.269Z,3.60
2024-01-05T02:54:47.233Z,3.40
2024-01-05T02:55:47.213Z,3.50
2024-01-05T02:56:47.186Z,3.80
2024-01-05T02:57:47.157Z,2.80
2024-01-05T02:58:47.134Z,3.80
2024-01-05T02:59:47.101Z,4.20
2024-01-05T03:00:47.367Z,3.60
2024-01-05T03:01:47.082Z,3.60
2024-01-05T03:02:47.035Z,3.60
2024-01-05T03:03:50.544Z,3.70
2024-01-05T03:04:47.067Z,3.50
2024-01-05T03:05:46.966Z,3.60
2024-01-05T03:06:47.260Z,3.50
2024-01-05T03:07:46.923Z,3.30
2024-01-05T03:08:46.869Z,3.00
2024-01-05T03:09:46.832Z,3.90
2024-01-05T03:10:46.820Z,3.50
2024-01-05T03:11:46.797Z,3.20
2024-01-05T03:12:46.770Z,3.60
2024-01-05T03:13:46.767Z,3.50
2024-01-05T03:14:46.704Z,3.50
2024-01-05T03:15:46.696Z,3.90
2024-01-05T03:16:46.782Z,3.90
2024-01-05T03:17:46.636Z,3.40
2024-01-05T03:18:46.888Z,3.20
2024-01-05T03:19:46.716Z,3.40
2024-01-05T03:20:46.545Z,3.70
2024-01-05T03:21:46.521Z,3.50
2024-01-05T03:22:46.536Z,3.40
2024-01-05T03:23:46.483Z,3.70
2024-01-05T03:24:46.435Z,4.10
2024-01-05T03:25:46.408Z,3.10
2024-01-05T03:26:46.381Z,3.70
2024-01-05T03:27:46.354Z,3.50
2024-01-05T03:28:46.331Z,3.20
2024-01-05T03:29:46.325Z,3.20
2024-01-05T03:30:46.336Z,3.50
2024-01-05T03:31:46.250Z,3.20
2024-01-05T03:32:46.312Z,3.60
2024-01-05T03:33:46.379Z,3.60
2024-01-05T03:34:46.187Z,3.60
2024-01-05T03:35:46.138Z,3.20
2024-01-05T03:36:46.537Z,3.60
2024-01-05T03:37:46.085Z,3.10
2024-01-05T03:38:46.065Z,3.50
2024-01-05T03:39:46.057Z,3.20
2024-01-05T03:40:46.021Z,3.00
2024-01-05T03:41:45.983Z,3.20
2024-01-05T03:42:45.961Z,3.60
2024-01-05T03:43:45.940Z,3.40
2024-01-05T03:44:45.930Z,3.30
2024-01-05T03:45:45.901Z,3.40
2024-01-05T03:46:46.031Z,2.90
2024-01-05T03:47:45.878Z,3.10
2024-01-05T03:48:46.014Z,3.30
2024-01-05T03:49:45.859Z,2.60
2024-01-05T03:50:45.743Z,3.10
2024-01-05T03:51:45.721Z,3.10
2024-01-05T03:52:45.699Z,3.40
2024-01-05T03:53:45.682Z,3.30
2024-01-05T03:54:45.636Z,3.30
2024-01-05T03:55:45.636Z,3.40
2024-01-05T03:56:45.689Z,3.40
2024-01-05T03:57:45.562Z,3.20
2024-01-05T03:58:45.530Z,3.80
2024-01-05T03:59:45.508Z,3.70
2024-01-05T04:00:45.560Z,3.50
2024-01-05T04:01:45.465Z,3.80
2024-01-05T04:02:45.482Z,3.70
2024-01-05T04:03:45.561Z,3.70
2024-01-05T04:04:45.505Z,2.90
2024-01-05T04:05:45.399Z,3.80
2024-01-05T04:06:45.788Z,3.40
2024-01-05T04:07:45.299Z,4.20
2024-01-05T04:08:45.268Z,3.60
2024-01-05T04:09:45.240Z,3.50
2024-01-05T04:10:45.219Z,3.80
2024-01-05T04:11:45.206Z,3.60
2024-01-05T04:12:45.161Z,4.10
2024-01-05T04:13:45.153Z,3.60
2024-01-05T04:14:45.109Z,3.50
2024-01-05T04:15:45.146Z,3.50
2024-01-05T04:16:45.360Z,3.20
2024-01-05T04:17:45.077Z,3.20
2024-01-05T04:18:45.101Z,3.70
2024-01-05T04:19:45.068Z,3.40
2024-01-05T04:20:44.953Z,3.70
2024-01-05T04:21:44.931Z,3.70
2024-01-05T04:22:44.910Z,3.50
2024-01-05T04:23:44.861Z,3.50
2024-01-05T04:24:44.849Z,3.10
2024-01-05T04:25:44.815Z,3.40
2024-01-05T04:26:45.009Z,3.80
2024-01-05T04:27:44.791Z,3.60
2024-01-05T04:28:44.739Z,3.20
2024-01-05T04:29:44.706Z,2.90
2024-01-05T04:30:44.806Z,3.40
2024-01-05T04:31:44.671Z,3.20
2024-01-05T04:32:44.693Z,3.10
2024-01-05T04:33:44.769Z,3.30
2024-01-05T04:34:44.639Z,3.50
2024-01-05T04:35:44.551Z,3.30
2024-01-05T04:36:44.662Z,3.40
2024-01-05T04:37:44.494Z,3.20
2024-01-05T04:38:44.500Z,3.70
2024-01-05T04:39:44.440Z,3.60
2024-01-05T04:40:44.421Z,3.00
2024-01-05T04:41:44.385Z,4.00
2024-01-05T04:42:44.363Z,3.50
2024-01-05T04:43:44.361Z,3.30
2024-01-05T04:44:44.309Z,3.00
2024-01-05T04:45:44.334Z,3.30
2024-01-05T04:46:44.456Z,3.30
2024-01-05T04:47:44.263Z,3.10
2024-01-05T04:48:44.258Z,3.30
2024-01-05T04:49:44.252Z,3.60
2024-01-05T04:50:44.164Z,3.80
2024-01-05T04:51:44.589Z,3.50
2024-01-05T04:52:44.096Z,3.80
2024-01-05T04:53:44.083Z,4.00
2024-01-05T04:54:44.042Z,4.60
2024-01-05T04:55:44.034Z,3.10
2024-01-05T04:56:43.993Z,3.70
2024-01-05T04:57:46.394Z,3.60
2024-01-05T04:58:43.937Z,3.50
2024-01-05T04:59:43.937Z,3.50
2024-01-05T05:00:44.003Z,3.20
2024-01-05T05:01:44.180Z,3.60
2024-01-05T05:02:43.855Z,3.40
2024-01-05T05:03:43.940Z,3.90
2024-01-05T05:04:45.984Z,3.40
2024-01-05T05:05:43.927Z,3.20
2024-01-05T05:06:43.792Z,2.70
2024-01-05T05:07:43.701Z,3.70
2024-01-05T05:08:43.681Z,3.50
2024-01-05T05:09:43.653Z,3.30
2024-01-05T05:10:43.623Z,2.90
2024-01-05T05:11:43.907Z,3.60
2024-01-05T05:12:43.591Z,4.10
2024-01-05T05:13:43.542Z,3.20
2024-01-05T05:14:43.514Z,3.40
2024-01-05T05:15:43.558Z,3.30
2024-01-05T05:16:43.460Z,3.40
2024-01-05T05:17:43.565Z,3.20
2024-01-05T05:18:43.515Z,3.50
2024-01-05T05:19:43.429Z,3.30
2024-01-05T05:20:43.363Z,3.30
2024-01-05T05:21:43.519Z,3.50
2024-01-05T05:22:43.300Z,3.30
2024-01-05T05:23:43.273Z,3.20
2024-01-05T05:24:43.314Z,3.10
2024-01-05T05:25:43.224Z,3.80
2024-01-05T05:26:43.232Z,3.10
2024-01-05T05:27:43.174Z,4.00
2024-01-05T05:28:43.160Z,3.60
2024-01-05T05:29:43.112Z,4.10
2024-01-05T05:30:43.175Z,3.20
2024-01-05T05:31:43.506Z,3.30
2024-01-05T05:32:43.081Z,3.40
2024-01-05T05:33:43.074Z,3.30
2024-01-05T05:34:43.142Z,3.40
2024-01-05T05:35:42.959Z,3.70
2024-01-05T05:36:42.929Z,3.40
2024-01-05T05:37:42.898Z,3.50
2024-01-05T05:38:42.877Z,3.10
2024-01-05T05:39:42.851Z,3.20
2024-01-05T05:40:42.830Z,3.40
2024-01-05T05:41:43.028Z,3.30
2024-01-05T05:42:42.776Z,3.50
2024-01-05T05:43:42.745Z,4.00
2024-01-05T05:44:42.719Z,3.80
2024-01-05T05:45:42.736Z,3.50
2024-01-05T05:46:42.666Z,3.30
2024-01-05T05:47:42.753Z,3.60
2024-01-05T05:48:42.740Z,3.00
2024-01-05T05:49:42.665Z,3.60
2024-01-05T05:50:42.562Z,3.60
2024-01-05T05:51:42.920Z,3.30
2024-01-05T05:52:42.508Z,3.70
2024-01-05T05:53:42.469Z,3.30
2024-01-05T05:54:42.502Z,3.20
2024-01-05T05:55:42.417Z,3.40
2024-01-05T05:56:42.394Z,3.10
2024-01-05T05:57:42.426Z,3.10
2024-01-05T05:58:42.341Z,3.40
2024-01-05T05:59:42.318Z,4.30
2024-01-05T06:00:42.404Z,3.60
2024-01-05T06:01:42.419Z,2.90
2024-01-05T06:02:42.239Z,3.10
2024-01-05T06:03:42.349Z,3.40
2024-01-05T06:04:42.288Z,3.20
2024-01-05T06:05:42.205Z,3.40
2024-01-05T06:06:42.163Z,3.50
2024-01-05T06:07:42.116Z,3.30
2024-01-05T06:08:42.082Z,3.20
2024-01-05T06:09:42.111Z,3.30
2024-01-05T06:10:42.044Z,3.20
2024-01-05T06:11:42.362Z,3.20
2024-01-05T06:12:42.045Z,3.20
2024-01-05T06:13:41.946Z,3.60
2024-01-05T06:14:41.930Z,4.10
2024-01-05T06:15:41.928Z,2.80
2024-01-05T06:16:41.888Z,3.80
2024-01-05T06:17:41.924Z,3.30
2024-01-05T06:18:42.006Z,3.20
2024-01-05T06:19:41.957Z,3.30
2024-01-05T06:20:41.772Z,3.70
2024-01-05T06:21:41.851Z,2.90
2024-01-05T06:22:41.728Z,3.00
2024-01-05T06:23:41.685Z,3.20
2024-01-05T06:24:41.664Z,3.10
2024-01-05T06:25:41.627Z,3.50
2024-01-05T06:26:41.603Z,3.60
2024-01-05T06:27:41.618Z,3.30
2024-01-05T06:28:41.550Z,3.40
2024-01-05T06:29:41.516Z,3.80
2024-01-05T06:30:41.551Z,3.40
2024-01-05T06:31:41.727Z,3.60
2024-01-05T06:32:41.452Z,3.40
2024-01-05T06:33:41.532Z,3.60
2024-01-05T06:34:41.446Z,3.30
2024-01-05T06:35:41.385Z,3.90
2024-01-05T06:36:41.359Z,3.20
2024-01-05T06:37:41.301Z,3.70
2024-01-05T06:38:41.283Z,3.00
2024-01-05T06:39:41.326Z,3.50
2024-01-05T06:40:41.220Z,3.50
2024-01-05T06:41:41.541Z,3.10
2024-01-05T06:42:41.224Z,3.40
2024-01-05T06:43:41.136Z,3.20
2024-01-05T06:44:41.123Z,3.20
2024-01-05T06:45:41.188Z,3.20
2024-01-05T06:46:41.066Z,3.30
2024-01-05T06:47:41.048Z,3.10
2024-01-05T06:48:41.137Z,2.50
2024-01-05T06:49:41.100Z,3.20
2024-01-05T06:50:41.182Z,3.60
2024-01-05T06:51:41.242Z,3.20
2024-01-05T06:52:40.908Z,4.00
2024-01-05T06:53:40.877Z,3.60
2024-01-05T06:54:40.927Z,4.00
2024-01-05T06:55:40.822Z,2.90
2024-01-05T06:56:40.795Z,3.20
2024-01-05T06:57:40.765Z,3.90
2024-01-05T06:58:40.749Z,3.30
2024-01-05T06:59:40.721Z,3.30
2024-01-05T07:00:40.800Z,3.10
2024-01-05T07:01:40.664Z,3.20
2024-01-05T07:02:40.682Z,3.40
2024-01-05T07:03:40.696Z,3.50
2024-01-05T07:04:40.594Z,3.10
2024-01-05T07:05:40.575Z,3.70
2024-01-05T07:06:40.541Z,3.40
2024-01-05T07:07:40.529Z,3.20
2024-01-05T07:08:40.477Z,3.90
2024-01-05T07:09:40.472Z,3.70
2024-01-05T07:10:40.429Z,3.20
2024-01-05T07:11:40.394Z,3.00
2024-01-05T07:12:40.377Z,4.00
2024-01-05T07:13:40.341Z,3.50
2024-01-05T07:14:40.621Z,3.10
2024-01-05T07:15:40.323Z,3.20
2024-01-05T07:16:40.262Z,2.90
2024-01-05T07:17:40.333Z,3.30
2024-01-05T07:18:40.337Z,3.50
2024-01-05T07:19:40.252Z,3.60
2024-01-05T07:20:40.160Z,3.10
2024-01-05T07:21:40.210Z,3.90
2024-01-05T07:22:40.104Z,3.30
2024-01-05T07:23:40.097Z,3.20
2024-01-05T07:24:40.061Z,3.00
2024-01-05T07:25:40.024Z,3.00
2024-01-05T07:26:39.990Z,2.90
2024-01-05T07:27:39.983Z,2.80
2024-01-05T07:28:39.942Z,3.00
2024-01-05T07:29:39.924Z,3.00
2024-01-05T07:30:40.038Z,3.20
2024-01-05T07:31:39.866Z,3.30
2024-01-05T07:32:39.895Z,3.20
2024-01-05T07:33:39.904Z,3.40
2024-01-05T07:34:39.821Z,3.10
2024-01-05T07:35:39.759Z,3.60
2024-01-05T07:36:39.745Z,3.70
2024-01-05T07:37:39.711Z,3.00
2024-01-05T07:38:39.682Z,3.10
2024-01-05T07:39:39.730Z,2.60
2024-01-05T07:40:39.638Z,2.90
2024-01-05T07:41:39.603Z,3.40
2024-01-05T07:42:39.624Z,2.80
2024-01-05T07:43:39.550Z,3.40
2024-01-05T07:44:39.519Z,3.40
2024-01-05T07:45:39.505Z,3.30
2024-01-05T07:46:39.712Z,3.10
2024-01-05T07:47:39.545Z,3.00
2024-01-05T07:48:39.576Z,2.80
2024-01-05T07:49:39.520Z,3.20
2024-01-05T07:50:39.363Z,3.20
2024-01-05T07:51:41.983Z,2.70
2024-01-05T07:52:39.322Z,3.10
2024-01-05T07:53:39.303Z,4.50
2024-01-05T07:54:39.271Z,2.70
2024-01-05T07:55:39.249Z,2.90
2024-01-05T07:56:39.237Z,2.70
2024-01-05T07:57:39.256Z,4.00
2024-01-05T07:58:39.155Z,3.20
2024-01-05T07:59:39.132Z,3.30
2024-01-05T08:00:39.204Z,2.80
2024-01-05T08:01:39.115Z,4.10
2024-01-05T08:02:39.043Z,3.10
2024-01-05T08:03:39.232Z,2.90
2024-01-05T08:04:38.979Z,3.20
2024-01-05T08:05:39.012Z,3.20
2024-01-05T08:06:38.996Z,3.20
2024-01-05T08:07:38.914Z,3.10
2024-01-05T08:08:38.885Z,2.80
2024-01-05T08:09:38.957Z,3.40
2024-01-05T08:10:38.830Z,3.60
2024-01-05T08:11:38.843Z,3.70
2024-01-05T08:12:38.799Z,3.30
2024-01-05T08:13:38.753Z,2.80
2024-01-05T08:14:38.737Z,3.10
2024-01-05T08:15:38.782Z,3.10
2024-01-05T08:16:38.670Z,2.80
2024-01-05T08:17:38.692Z,2.40
2024-01-05T08:18:38.846Z,3.10
2024-01-05T08:19:38.686Z,2.80
2024-01-05T08:20:38.573Z,2.60
2024-01-05T08:21:38.819Z,2.80
2024-01-05T08:22:38.517Z,2.40
2024-01-05T08:23:38.494Z,2.40
2024-01-05T08:24:38.590Z,2.60
2024-01-05T08:25:38.443Z,2.50
2024-01-05T08:26:38.411Z,2.20
2024-01-05T08:27:38.506Z,2.60
2024-01-05T08:28:38.354Z,3.00
2024-01-05T08:29:38.323Z,2.70
2024-01-05T08:30:38.415Z,3.50
2024-01-05T08:31:38.297Z,2.60
2024-01-05T08:32:38.282Z,2.70
2024-01-05T08:33:38.305Z,2.90
2024-01-05T08:34:38.288Z,2.30
2024-01-05T08:35:38.166Z,2.90
2024-01-05T08:36:38.227Z,2.60
2024-01-05T08:37:39.392Z,2.10
2024-01-05T08:38:38.086Z,2.20
2024-01-05T08:39:38.134Z,2.30
2024-01-05T08:40:38.034Z,2.70
2024-01-05T08:41:38.002Z,2.70
2024-01-05T08:42:38.066Z,2.60
2024-01-05T08:43:39.123Z,2.40
2024-01-05T08:44:37.921Z,2.50
2024-01-05T08:45:37.948Z,2.20
2024-01-05T08:46:37.866Z,2.60
2024-01-05T08:47:37.889Z,2.30
2024-01-05T08:48:37.820Z,2.50
2024-01-05T08:49:38.937Z,2.30
2024-01-05T08:50:37.767Z,2.30
2024-01-05T08:51:37.769Z,2.70
2024-01-05T08:52:37.712Z,2.50
2024-01-05T08:53:37.693Z,2.80
2024-01-05T08:54:37.783Z,2.60
2024-01-05T08:55:37.718Z,2.40
2024-01-05T08:56:37.603Z,2.50
2024-01-05T08:57:37.696Z,2.90
2024-01-05T08:58:37.551Z,2.20
2024-01-05T08:59:37.580Z,2.40
2024-01-05T09:00:37.620Z,2.40
2024-01-05T09:01:39.197Z,2.60
2024-01-05T09:02:37.477Z,3.20
2024-01-05T09:03:37.497Z,2.60
2024-01-05T09:04:37.404Z,2.50
2024-01-05T09:05:37.488Z,2.40
2024-01-05T09:06:37.372Z,2.40
2024-01-05T09:07:39.346Z,2.20
2024-01-05T09:08:37.297Z,2.20
2024-01-05T09:09:37.372Z,2.60
2024-01-05T09:10:37.233Z,2.30
2024-01-05T09:11:37.205Z,2.30
2024-01-05T09:12:37.259Z,2.70
2024-01-05T09:13:39.192Z,2.60
2024-01-05T09:14:37.132Z,2.40
2024-01-05T09:15:37.188Z,2.30
2024-01-05T09:16:37.079Z,2.50
2024-01-05T09:17:37.184Z,2.20
2024-01-05T09:18:37.240Z,2.10
2024-01-05T09:19:37.209Z,2.30
2024-01-05T09:20:36.966Z,2.20
2024-01-05T09:21:37.029Z,2.40
2024-01-05T09:22:36.915Z,2.20
2024-01-05T09:23:36.893Z,2.60
2024-01-05T09:24:36.964Z,2.60
2024-01-05T09:25:39.860Z,2.40
2024-01-05T09:26:36.814Z,2.50
2024-01-05T09:27:36.908Z,2.60
2024-01-05T09:28:36.761Z,2.40
2024-01-05T09:29:36.744Z,2.70
2024-01-05T09:30:36.749Z,2.60
2024-01-05T09:31:36.812Z,2.40
2024-01-05T09:32:36.745Z,2.80
2024-01-05T09:33:36.696Z,3.20
2024-01-05T09:34:36.672Z,3.20
2024-01-05T09:35:36.576Z,2.80
2024-01-05T09:36:36.562Z,2.40
2024-01-05T09:37:36.522Z,2.10
2024-01-05T09:38:36.485Z,2.30
2024-01-05T09:39:36.626Z,2.20
2024-01-05T09:40:36.433Z,2.20
2024-01-05T09:41:39.159Z,2.30
2024-01-05T09:42:36.473Z,2.40
2024-01-05T09:43:36.357Z,2.00
2024-01-05T09:44:36.327Z,2.00
2024-01-05T09:45:36.359Z,2.60
2024-01-05T09:46:36.272Z,2.10
2024-01-05T09:47:38.302Z,2.60
2024-01-05T09:48:40.069Z,2.60
2024-01-05T09:49:36.401Z,2.80
2024-01-05T09:50:36.345Z,2.60
2024-01-05T09:51:36.249Z,2.60
2024-01-05T09:52:36.118Z,2.50
2024-01-05T09:53:38.626Z,2.20
2024-01-05T09:54:36.111Z,2.00
2024-01-05T09:55:36.039Z,2.70
2024-01-05T09:56:36.035Z,2.40
2024-01-05T09:57:36.096Z,2.40
2024-01-05T09:58:35.970Z,2.90
2024-01-05T09:59:38.986Z,2.80
2024-01-05T10:00:35.954Z,2.40
2024-01-05T10:01:35.932Z,2.40
2024-01-05T10:02:35.856Z,2.60
2024-01-05T10:03:35.905Z,2.40
2024-01-05T10:04:35.872Z,2.20
2024-01-05T10:05:38.469Z,2.20
2024-01-05T10:06:35.777Z,1.90
2024-01-05T10:07:35.725Z,2.00
2024-01-05T10:08:35.704Z,1.70
2024-01-05T10:09:35.712Z,1.60
2024-01-05T10:10:35.643Z,1.40
2024-01-05T10:11:37.713Z,1.40
2024-01-05T10:12:35.625Z,1.70
2024-01-05T10:13:35.582Z,1.30
2024-01-05T10:14:35.544Z,1.70
2024-01-05T10:15:35.540Z,1.60
2024-01-05T10:16:35.490Z,1.60
2024-01-05T10:17:35.525Z,1.40
2024-01-05T10:18:35.547Z,1.30
2024-01-05T10:19:35.536Z,1.60
2024-01-05T10:20:35.381Z,1.30
2024-01-05T10:21:35.413Z,1.50
2024-01-05T10:22:35.330Z,1.60
2024-01-05T10:23:35.312Z,1.40
2024-01-05T10:24:35.292Z,1.40
2024-01-05T10:25:35.252Z,1.30
2024-01-05T10:26:35.233Z,1.40
2024-01-05T10:27:35.270Z,1.40
2024-01-05T10:28:35.164Z,1.20
2024-01-05T10:29:35.141Z,1.90
2024-01-05T10:30:35.286Z,1.60
2024-01-05T10:31:35.172Z,2.10
2024-01-05T10:32:35.122Z,1.90
2024-01-05T10:33:35.151Z,2.30
2024-01-05T10:34:35.140Z,2.00
2024-01-05T10:35:35.006Z,2.20
2024-01-05T10:36:35.034Z,1.80
2024-01-05T10:37:34.933Z,1.60
2024-01-05T10:38:34.912Z,1.40
2024-01-05T10:39:34.936Z,1.30
2024-01-05T10:40:34.849Z,1.70
2024-01-05T10:41:34.836Z,1.50
2024-01-05T10:42:34.816Z,1.40
2024-01-05T10:43:34.769Z,1.00
2024-01-05T10:44:34.744Z,1.20
2024-01-05T10:45:34.797Z,0.90
2024-01-05T10:46:34.688Z,1.20
2024-01-05T10:47:34.747Z,1.00
2024-01-05T10:48:34.700Z,1.00
2024-01-05T10:49:34.687Z,0.90
2024-01-05T10:50:34.581Z,0.90
2024-01-05T10:51:34.651Z,0.90
2024-01-05T10:52:34.531Z,1.00
2024-01-05T10:53:37.018Z,1.00
2024-01-05T10:54:34.514Z,0.70
2024-01-05T10:55:34.465Z,0.80
2024-01-05T10:56:34.422Z,0.80
2024-01-05T10:57:34.493Z,0.80
2024-01-05T10:58:34.368Z,0.70
2024-01-05T10:59:34.352Z,0.80
2024-01-05T11:00:34.456Z,0.80
2024-01-05T11:01:34.313Z,0.90
2024-01-05T11:02:34.265Z,0.70
2024-01-05T11:03:34.284Z,0.90
2024-01-05T11:04:34.243Z,0.80
2024-01-05T11:05:34.247Z,0.90
2024-01-05T11:06:34.242Z,1.00
2024-01-05T11:07:35.097Z,0.80
2024-01-05T11:08:34.250Z,0.70
2024-01-05T11:09:34.145Z,0.90
2024-01-05T11:10:34.068Z,0.80
2024-01-05T11:11:34.029Z,0.80
2024-01-05T11:12:34.055Z,0.90
2024-01-05T11:13:33.981Z,0.80
2024-01-05T11:14:33.951Z,0.70
2024-01-05T11:15:33.993Z,0.90
2024-01-05T11:16:33.902Z,0.70
2024-01-05T11:17:33.918Z,0.60
2024-01-05T11:18:34.046Z,0.70
2024-01-05T11:19:34.030Z,0.80
2024-01-05T11:20:33.791Z,0.90
2024-01-05T11:21:33.799Z,0.60
2024-01-05T11:22:33.739Z,0.80
2024-01-05T11:23:33.736Z,0.90
2024-01-05T11:24:33.709Z,0.70
2024-01-05T11:25:33.666Z,0.90
2024-01-05T11:26:33.676Z,0.60
2024-01-05T11:27:33.644Z,0.70
2024-01-05T11:28:33.582Z,1.10
2024-01-05T11:29:33.554Z,0.70
2024-01-05T11:30:33.588Z,0.80
2024-01-05T11:31:33.569Z,0.60
2024-01-05T11:32:33.635Z,0.70
2024-01-05T11:33:39.170Z,0.70
2024-01-05T11:34:33.951Z,0.70
2024-01-05T11:35:35.751Z,0.90
2024-01-05T11:36:33.399Z,0.80
2024-01-05T11:37:33.338Z,0.60
2024-01-05T11:38:33.315Z,0.70
2024-01-05T11:39:33.343Z,0.70
2024-01-05T11:40:33.313Z,0.80
2024-01-05T11:41:33.241Z,0.80
2024-01-05T11:42:33.280Z,0.80
2024-01-05T11:43:33.193Z,0.70
2024-01-05T11:44:33.163Z,0.80
2024-01-05T11:45:33.150Z,1.10
2024-01-05T11:46:33.102Z,0.80
2024-01-05T11:47:33.098Z,0.70
2024-01-05T11:48:33.295Z,0.70
2024-01-05T11:49:33.164Z,0.60
2024-01-05T11:50:33.156Z,0.60
2024-01-05T11:51:32.991Z,0.80
2024-01-05T11:52:32.937Z,0.70
2024-01-05T11:53:32.906Z,0.70
2024-01-05T11:54:32.927Z,0.70
2024-01-05T11:55:32.875Z,0.80
2024-01-05T11:56:32.831Z,0.60
2024-01-05T11:57:32.869Z,0.90
2024-01-05T11:58:32.806Z,1.00
2024-01-05T11:59:32.778Z,0.80
2024-01-05T12:00:32.933Z,0.80
2024-01-05T12:01:32.756Z,0.90
2024-01-05T12:02:32.668Z,0.80
2024-01-05T12:03:32.777Z,0.90
2024-01-05T12:04:32.722Z,0.80
2024-01-05T12:05:32.666Z,0.70
2024-01-05T12:06:32.590Z,0.90
2024-01-05T12:07:32.542Z,0.80
2024-01-05T12:08:32.518Z,0.80
2024-01-05T12:09:32.579Z,0.70
2024-01-05T12:10:32.465Z,1.00
2024-01-05T12:11:32.456Z,0.70
2024-01-05T12:12:32.430Z,1.00
2024-01-05T12:13:32.408Z,0.70
2024-01-05T12:14:32.362Z,0.90
2024-01-05T12:15:32.370Z,1.50
2024-01-05T12:16:32.303Z,0.80
2024-01-05T12:17:32.356Z,1.20
2024-01-05T12:18:37.335Z,0.70
2024-01-05T12:19:32.306Z,0.90
2024-01-05T12:20:32.208Z,0.90
2024-01-05T12:21:32.219Z,0.70
2024-01-05T12:22:32.146Z,0.90
2024-01-05T12:23:32.132Z,1.10
2024-01-05T12:24:32.136Z,1.10
2024-01-05T12:25:32.066Z,1.50
2024-01-05T12:26:32.058Z,0.80
2024-01-05T12:27:32.054Z,0.90
2024-01-05T12:28:32.048Z,0.80
2024-01-05T12:29:31.951Z,0.90
2024-01-05T12:30:32.468Z,1.00
2024-01-05T12:31:31.976Z,0.80
2024-01-05T12:32:31.878Z,0.80
2024-01-05T12:33:32.193Z,0.90
2024-01-05T12:34:32.160Z,0.80
2024-01-05T12:35:31.791Z,1.10
2024-01-05T12:36:31.819Z,0.80
2024-01-05T12:37:31.745Z,0.90
2024-01-05T12:38:31.715Z,0.70
2024-01-05T12:39:31.727Z,0.90
2024-01-05T12:40:31.667Z,1.10
2024-01-05T12:41:31.633Z,0.90
2024-01-05T12:42:31.639Z,1.20
2024-01-05T12:43:31.610Z,1.00
2024-01-05T12:44:31.566Z,0.80
2024-01-05T12:45:31.587Z,1.10
2024-01-05T12:46:31.501Z,1.10
2024-01-05T12:47:31.486Z,1.40
2024-01-05T12:48:31.563Z,0.90
2024-01-05T12:49:31.450Z,0.80
2024-01-05T12:50:31.386Z,1.10
2024-01-05T12:51:31.414Z,0.60
2024-01-05T12:52:34.246Z,1.80
2024-01-05T12:53:31.308Z,1.80
2024-01-05T12:54:31.306Z,1.20
2024-01-05T12:55:31.253Z,1.20
2024-01-05T12:56:31.232Z,2.00
2024-01-05T12:57:31.254Z,1.00
2024-01-05T12:58:33.499Z,1.10
2024-01-05T12:59:31.160Z,1.20
2024-01-05T13:00:31.135Z,0.90
2024-01-05T13:01:31.123Z,0.90
2024-01-05T13:02:31.068Z,0.70
2024-01-05T13:03:31.045Z,0.90
2024-01-05T13:04:35.665Z,1.00
2024-01-05T13:05:31.017Z,0.90
2024-01-05T13:06:31.240Z,1.40
2024-01-05T13:07:30.936Z,1.00
2024-01-05T13:08:30.921Z,0.90
2024-01-05T13:09:30.900Z,1.00
2024-01-05T13:10:30.867Z,0.80
2024-01-05T13:11:30.828Z,2.10
2024-01-05T13:12:30.834Z,1.00
2024-01-05T13:13:30.774Z,1.10
2024-01-05T13:14:30.756Z,1.00
2024-01-05T13:15:30.766Z,1.70
2024-01-05T13:16:33.854Z,1.00
2024-01-05T13:17:30.669Z,1.00
2024-01-05T13:18:30.796Z,0.80